createdAt,value
2023-01-13T00:00:35.223Z,3.33
2023-01-13T00:03:03.419Z,3.17
2023-01-13T00:05:31.403Z,2.07
2023-01-13T00:07:59.380Z,4.00
2023-01-13T00:10:27.431Z,4.03
2023-01-13T00:12:55.325Z,3.50
2023-01-13T00:15:24.829Z,5.40
2023-01-13T00:17:52.771Z,5.03
2023-01-13T00:20:21.032Z,5.77
2023-01-13T00:22:49.177Z,7.00
2023-01-13T00:25:17.532Z,8.83
2023-01-13T00:27:45.429Z,6.90
2023-01-13T00:30:14.326Z,4.33
2023-01-13T00:32:43.819Z,4.33
2023-01-13T00:35:11.829Z,8.00
2023-01-13T00:37:41.019Z,11.37
2023-01-13T00:40:11.557Z,15.27
2023-01-13T00:42:58.065Z,10.33
2023-01-13T00:45:26.033Z,10.80
2023-01-13T00:47:55.281Z,9.83
2023-01-13T00:50:23.247Z,9.90
2023-01-13T00:52:51.121Z,7.40
2023-01-13T00:55:19.100Z,10.90
2023-01-13T00:57:47.014Z,11.00
2023-01-13T01:00:16.000Z,10.93
2023-01-13T01:02:44.019Z,12.57
2023-01-13T01:05:13.340Z,12.33
2023-01-13T01:07:41.201Z,9.37
2023-01-13T01:10:11.168Z,10.33
2023-01-13T01:12:39.295Z,7.87
2023-01-13T01:15:11.653Z,7.83
2023-01-13T01:17:39.932Z,11.90
2023-01-13T01:20:10.608Z,13.30
2023-01-13T01:22:40.253Z,12.60
2023-01-13T01:25:09.642Z,14.57
2023-01-13T01:27:37.624Z,17.83
2023-01-13T01:30:08.119Z,13.30
2023-01-13T01:32:36.242Z,13.03
2023-01-13T01:35:05.191Z,14.70
2023-01-13T01:37:33.684Z,9.07
2023-01-13T01:40:03.175Z,10.70
2023-01-13T01:42:49.738Z,9.53
2023-01-13T01:45:21.051Z,14.27
2023-01-13T01:47:57.129Z,12.90
2023-01-13T01:50:27.470Z,15.23
2023-01-13T01:53:02.707Z,11.47
2023-01-13T01:55:37.111Z,11.50
2023-01-13T01:58:11.382Z,14.17
2023-01-13T02:00:39.647Z,8.40
2023-01-13T02:03:11.204Z,13.73
2023-01-13T02:05:41.388Z,17.30
2023-01-13T02:08:12.947Z,14.87
2023-01-13T02:10:48.203Z,15.07
2023-01-13T02:13:17.365Z,13.70
2023-01-13T02:15:57.921Z,14.97
2023-01-13T02:18:51.083Z,12.93
2023-01-13T02:22:15.648Z,13.20
2023-01-13T02:25:19.728Z,16.20
2023-01-13T02:28:14.132Z,12.73
2023-01-13T02:31:10.054Z,15.60
2023-01-13T02:33:53.643Z,16.02
2023-01-13T02:36:39.208Z,11.27
2023-01-13T02:39:19.100Z,12.93
2023-01-13T02:42:16.440Z,9.60
2023-01-13T02:44:51.607Z,17.57
2023-01-13T02:47:25.216Z,19.10
2023-01-13T02:50:00.428Z,14.00
2023-01-13T02:52:37.473Z,16.00
2023-01-13T02:55:15.230Z,18.20
2023-01-13T02:57:47.398Z,16.43
2023-01-13T03:00:18.885Z,12.33
2023-01-13T03:02:50.063Z,21.57
2023-01-13T03:05:18.788Z,10.67
2023-01-13T03:08:09.979Z,19.33
2023-01-13T03:11:03.747Z,14.30
2023-01-13T03:13:53.139Z,14.83
2023-01-13T03:16:31.783Z,19.07
2023-01-13T03:19:22.090Z,16.20
2023-01-13T03:21:57.165Z,13.07
2023-01-13T03:24:34.924Z,15.82
2023-01-13T03:27:12.679Z,16.53
2023-01-13T03:29:49.578Z,12.33
2023-01-13T03:32:24.531Z,16.33
2023-01-13T03:34:59.261Z,18.02
2023-01-13T03:37:35.557Z,19.87
2023-01-13T03:40:13.240Z,19.30
2023-01-13T03:43:06.732Z,17.83
2023-01-13T03:45:37.352Z,17.83
2023-01-13T03:48:13.562Z,13.53
2023-01-13T03:50:52.276Z,13.37
2023-01-13T03:53:28.529Z,17.07
2023-01-13T03:56:05.694Z,20.80
2023-01-13T03:58:42.191Z,22.57
2023-01-13T04:01:19.283Z,21.67
2023-01-13T04:03:57.667Z,19.90
2023-01-13T04:06:40.953Z,18.73
2023-01-13T04:09:18.552Z,17.40
2023-01-13T04:11:55.820Z,20.37
2023-01-13T04:14:31.456Z,23.17
2023-01-13T04:17:00.240Z,18.13
2023-01-13T04:19:28.311Z,17.87
2023-01-13T04:21:57.899Z,18.93
2023-01-13T04:24:28.052Z,17.67
2023-01-13T04:26:56.842Z,20.27
2023-01-13T04:29:25.417Z,21.33
2023-01-13T04:31:53.826Z,23.10
2023-01-13T04:34:22.015Z,19.03
2023-01-13T04:36:51.377Z,16.73
2023-01-13T04:39:21.200Z,18.77
2023-01-13T04:42:00.749Z,19.80
2023-01-13T04:44:31.564Z,17.87
2023-01-13T04:47:01.708Z,21.03
2023-01-13T04:49:33.270Z,20.43
2023-01-13T04:52:05.083Z,19.67
2023-01-13T04:54:36.786Z,15.43
2023-01-13T04:57:05.341Z,19.53
2023-01-13T04:59:34.605Z,18.13
2023-01-13T05:02:03.257Z,16.40
2023-01-13T05:04:32.017Z,20.47
2023-01-13T05:07:00.512Z,16.73
2023-01-13T05:09:33.279Z,17.83
2023-01-13T05:12:21.510Z,16.07
2023-01-13T05:15:08.609Z,16.70
2023-01-13T05:17:38.754Z,15.20
2023-01-13T05:20:11.259Z,17.57
2023-01-13T05:22:58.599Z,19.53
2023-01-13T05:25:30.570Z,18.07
2023-01-13T05:28:01.162Z,16.27
2023-01-13T05:30:33.418Z,16.03
2023-01-13T05:33:01.851Z,13.53
2023-01-13T05:35:30.011Z,15.30
2023-01-13T05:37:58.185Z,11.33
2023-01-13T05:40:45.148Z,9.27
2023-01-13T05:43:21.715Z,13.47
2023-01-13T05:45:53.552Z,14.17
2023-01-13T05:48:25.361Z,13.43
2023-01-13T05:50:54.187Z,10.47
2023-01-13T05:53:24.652Z,9.20
2023-01-13T05:55:53.126Z,9.87
2023-01-13T05:58:26.278Z,13.33
2023-01-13T06:01:01.263Z,11.60
2023-01-13T06:03:30.347Z,10.03
2023-01-13T06:06:01.602Z,9.23
2023-01-13T06:08:31.433Z,8.27
2023-01-13T06:11:00.792Z,11.17
2023-01-13T06:13:31.368Z,7.27
2023-01-13T06:16:02.263Z,12.50
2023-01-13T06:18:32.415Z,9.73
2023-01-13T06:21:02.340Z,9.00
2023-01-13T06:23:35.078Z,10.03
2023-01-13T06:26:12.326Z,8.87
2023-01-13T06:28:42.106Z,12.07
2023-01-13T06:31:11.208Z,8.07
2023-01-13T06:33:45.976Z,12.93
2023-01-13T06:36:24.706Z,10.77
2023-01-13T06:39:00.206Z,9.93
2023-01-13T06:41:51.130Z,9.60
2023-01-13T06:44:24.009Z,10.97
2023-01-13T06:46:53.747Z,15.07
2023-01-13T06:49:22.023Z,12.70
2023-01-13T06:51:50.640Z,13.57
2023-01-13T06:54:18.602Z,11.97
2023-01-13T06:56:47.021Z,13.80
2023-01-13T06:59:15.361Z,9.03
2023-01-13T07:01:45.397Z,7.77
2023-01-13T07:04:13.799Z,10.40
2023-01-13T07:06:42.761Z,14.17
2023-01-13T07:09:12.516Z,11.63
2023-01-13T07:11:40.766Z,13.20
2023-01-13T07:14:27.577Z,11.93
2023-01-13T07:16:57.515Z,10.43
2023-01-13T07:19:25.883Z,9.13
2023-01-13T07:21:57.066Z,9.77
2023-01-13T07:24:25.498Z,15.00
2023-01-13T07:34:20.185Z,10.67
2023-01-13T07:36:50.351Z,12.40
2023-01-13T07:39:21.649Z,12.30
2023-01-13T07:42:08.669Z,9.57
2023-01-13T07:44:39.427Z,9.73
2023-01-13T07:47:10.530Z,9.97
2023-01-13T07:49:40.206Z,15.10
2023-01-13T07:52:09.075Z,10.23
2023-01-13T07:54:41.385Z,12.53
2023-01-13T07:57:10.061Z,10.67
2023-01-13T07:59:38.592Z,12.73
2023-01-13T08:02:10.919Z,13.60
2023-01-13T08:10:19.746Z,13.40
2023-01-13T08:13:07.938Z,11.93
2023-01-13T08:15:36.288Z,12.57
2023-01-13T08:18:04.274Z,12.87
2023-01-13T08:20:33.271Z,12.93
2023-01-13T08:23:02.217Z,8.03
2023-01-13T08:25:35.022Z,16.30
2023-01-13T08:28:05.075Z,10.47
2023-01-13T08:30:44.575Z,9.93
2023-01-13T08:33:16.428Z,10.60
2023-01-13T08:35:46.070Z,13.57
2023-01-13T08:38:14.340Z,19.53
2023-01-13T08:40:47.099Z,12.57
2023-01-13T08:43:15.540Z,14.03
2023-01-13T08:45:44.547Z,12.87
2023-01-13T08:48:13.793Z,12.10
2023-01-13T08:50:44.789Z,11.43
2023-01-13T08:53:15.815Z,16.43
2023-01-13T08:55:46.946Z,12.43
2023-01-13T08:58:17.029Z,9.90
2023-01-13T09:00:45.446Z,7.97
2023-01-13T09:03:15.520Z,14.50
2023-01-13T09:05:44.667Z,14.93
2023-01-13T09:08:14.306Z,13.57
2023-01-13T09:10:43.157Z,14.40
2023-01-13T09:13:14.494Z,14.97
2023-01-13T09:15:47.408Z,13.27
2023-01-13T09:18:15.590Z,11.97
2023-01-13T09:20:45.040Z,16.27
2023-01-13T09:23:13.689Z,17.03
2023-01-13T09:25:42.641Z,12.40
2023-01-13T09:28:11.226Z,16.10
2023-01-13T09:30:41.748Z,12.80
2023-01-13T09:33:28.830Z,16.67
2023-01-13T09:36:02.238Z,18.70
2023-01-13T09:38:37.488Z,11.33
2023-01-13T09:41:27.361Z,14.88
2023-01-13T09:44:03.886Z,12.93
2023-01-13T09:46:48.215Z,10.23
2023-01-13T09:49:22.706Z,15.77
2023-01-13T09:52:04.124Z,16.57
2023-01-13T09:54:41.689Z,12.93
2023-01-13T09:57:13.150Z,14.00
2023-01-13T09:59:42.260Z,13.83
2023-01-13T10:02:39.301Z,16.80
2023-01-13T10:05:20.309Z,14.50
2023-01-13T10:07:57.124Z,15.40
2023-01-13T10:10:39.045Z,16.87
2023-01-13T10:13:21.282Z,14.53
2023-01-13T10:16:03.585Z,13.73
2023-01-13T10:18:59.334Z,13.33
2023-01-13T10:22:09.431Z,12.02
2023-01-13T10:25:13.190Z,12.13
2023-01-13T10:27:46.838Z,15.97
2023-01-13T10:30:21.518Z,14.23
2023-01-13T10:32:55.279Z,11.45
2023-01-13T10:35:56.550Z,14.03
2023-01-13T10:38:30.037Z,15.77
2023-01-13T10:41:04.519Z,6.78
2023-01-13T10:43:33.331Z,16.97
2023-01-13T10:46:06.118Z,14.40
2023-01-13T10:48:41.453Z,14.17
2023-01-13T10:51:22.564Z,14.80
2023-01-13T10:53:55.688Z,19.10
2023-01-13T10:56:27.736Z,11.37
2023-01-13T10:59:22.349Z,15.97
2023-01-13T11:02:01.247Z,13.93
2023-01-13T11:04:38.772Z,15.80
2023-01-13T11:07:30.373Z,17.52
2023-01-13T11:10:17.080Z,15.03
2023-01-13T11:12:58.344Z,13.57
2023-01-13T11:15:40.761Z,15.67
2023-01-13T11:18:22.576Z,13.70
2023-01-13T11:20:55.208Z,14.13
2023-01-13T11:23:34.705Z,15.30
2023-01-13T11:26:11.790Z,13.90
2023-01-13T11:28:55.047Z,12.77
2023-01-13T11:31:31.868Z,10.87
2023-01-13T11:34:08.283Z,12.37
2023-01-13T11:36:45.603Z,13.97
2023-01-13T11:39:26.417Z,17.10
2023-01-13T11:42:21.097Z,14.70
2023-01-13T11:45:04.030Z,14.70
2023-01-13T11:47:36.549Z,12.55
2023-01-13T11:50:19.073Z,14.23
2023-01-13T11:53:10.433Z,11.67
2023-01-13T11:55:59.187Z,16.33
2023-01-13T11:58:58.498Z,18.03
2023-01-13T12:01:50.378Z,16.10
2023-01-13T12:04:28.622Z,12.50
2023-01-13T12:07:15.762Z,13.17
2023-01-13T12:10:03.982Z,15.27
2023-01-13T12:13:01.189Z,14.27
2023-01-13T12:16:12.338Z,12.73
2023-01-13T12:19:26.531Z,15.03
2023-01-13T12:22:11.485Z,17.70
2023-01-13T12:24:55.291Z,13.63
2023-01-13T12:27:42.688Z,17.10
2023-01-13T12:30:28.453Z,16.13
2023-01-13T12:33:26.149Z,17.07
2023-01-13T12:36:04.005Z,17.65
2023-01-13T12:38:44.606Z,18.33
2023-01-13T12:41:29.541Z,14.80
2023-01-13T12:44:20.314Z,13.23
2023-01-13T12:46:58.140Z,15.97
2023-01-13T12:49:33.925Z,12.87
2023-01-13T12:52:19.999Z,12.47
2023-01-13T12:58:13.695Z,23.60
2023-01-13T13:01:11.974Z,17.00
2023-01-13T13:04:03.864Z,15.47
2023-01-13T13:06:40.588Z,12.17
2023-01-13T13:09:26.608Z,14.57
2023-01-13T13:11:58.241Z,13.05
2023-01-13T13:15:03.820Z,15.03
2023-01-13T13:17:41.809Z,9.93
2023-01-13T13:20:57.522Z,12.00
2023-01-13T13:23:48.838Z,10.83
2023-01-13T13:26:46.757Z,13.43
2023-01-13T13:29:49.879Z,9.73
2023-01-13T13:32:42.205Z,8.13
2023-01-13T13:35:31.305Z,11.27
2023-01-13T13:38:41.942Z,8.57
2023-01-13T13:41:45.282Z,10.93
2023-01-13T13:44:39.323Z,13.57
2023-01-13T13:47:10.261Z,9.03
2023-01-13T13:49:42.090Z,8.87
2023-01-13T13:52:20.604Z,9.50
2023-01-13T13:54:54.560Z,12.67
2023-01-13T13:57:33.300Z,10.20
2023-01-13T14:00:09.284Z,8.33
2023-01-13T14:02:46.956Z,11.83
2023-01-13T14:05:22.900Z,7.97
2023-01-13T14:07:59.818Z,11.17
2023-01-13T14:10:36.096Z,6.63
2023-01-13T14:13:16.034Z,7.77
2023-01-13T14:15:46.566Z,9.67
2023-01-13T14:18:18.556Z,8.57
2023-01-13T14:20:55.496Z,11.57
2023-01-13T14:23:29.162Z,9.30
2023-01-13T14:26:09.011Z,8.68
2023-01-13T14:28:41.963Z,5.30
2023-01-13T14:31:19.800Z,10.80
2023-01-13T14:33:51.913Z,12.27
2023-01-13T14:36:24.184Z,11.07
2023-01-13T14:39:34.040Z,11.43
2023-01-13T14:42:04.330Z,8.07
2023-01-13T14:44:38.444Z,13.07
2023-01-13T14:47:23.330Z,14.07
2023-01-13T14:50:03.459Z,11.70
2023-01-13T14:52:35.241Z,13.83
2023-01-13T14:55:29.175Z,23.43
2023-01-13T14:58:31.001Z,14.83
2023-01-13T15:01:29.504Z,13.17
2023-01-13T15:04:17.344Z,14.33
2023-01-13T15:06:56.292Z,13.23
2023-01-13T15:09:28.870Z,16.97
2023-01-13T15:11:59.623Z,18.50
2023-01-13T15:14:32.399Z,17.90
2023-01-13T15:17:01.414Z,17.27
2023-01-13T15:19:30.124Z,14.67
2023-01-13T15:21:58.501Z,14.00
2023-01-13T15:24:26.973Z,14.60
2023-01-13T15:26:56.136Z,12.10
2023-01-13T15:29:28.095Z,17.87
2023-01-13T15:31:57.643Z,11.33
2023-01-13T15:34:26.053Z,17.27
2023-01-13T15:36:58.529Z,16.07
2023-01-13T15:39:27.272Z,15.87
2023-01-13T15:42:15.778Z,9.07
2023-01-13T15:45:02.786Z,12.37
2023-01-13T15:47:34.067Z,14.37
2023-01-13T15:50:02.386Z,15.60
2023-01-13T15:52:31.112Z,14.33
2023-01-13T15:54:59.247Z,14.97
2023-01-13T15:57:30.494Z,11.40
2023-01-13T16:00:07.495Z,15.03
2023-01-13T16:02:39.306Z,17.97
2023-01-13T16:05:13.435Z,14.87
2023-01-13T16:07:44.444Z,11.73
2023-01-13T16:10:19.333Z,12.43
2023-01-13T16:12:47.757Z,13.23
2023-01-13T16:15:18.709Z,13.70
2023-01-13T16:17:56.173Z,14.43
2023-01-13T16:20:24.779Z,14.73
2023-01-13T16:22:53.326Z,13.47
2023-01-13T16:25:26.189Z,11.07
2023-01-13T16:27:55.120Z,10.40
2023-01-13T16:30:29.079Z,12.20
2023-01-13T16:32:59.365Z,9.67
2023-01-13T16:35:28.976Z,14.97
2023-01-13T16:37:58.761Z,13.23
2023-01-13T16:40:33.803Z,8.23
2023-01-13T16:43:05.365Z,6.70
2023-01-13T16:45:34.642Z,11.80
2023-01-13T16:48:05.017Z,21.50
2023-01-13T16:50:38.680Z,19.57
2023-01-13T16:53:09.424Z,20.33
2023-01-13T16:55:41.535Z,27.33
2023-01-13T16:58:18.379Z,20.47
2023-01-13T17:00:49.063Z,16.37
2023-01-13T17:03:19.875Z,19.50
2023-01-13T17:05:47.919Z,21.80
2023-01-13T17:08:18.330Z,24.93
2023-01-13T17:10:50.439Z,22.83
2023-01-13T17:13:21.672Z,18.77
2023-01-13T17:15:49.767Z,20.77
2023-01-13T17:18:19.910Z,21.40
2023-01-13T17:20:49.400Z,17.57
2023-01-13T17:23:17.363Z,22.97
2023-01-13T17:25:45.386Z,17.23
2023-01-13T17:28:14.123Z,22.07
2023-01-13T17:30:44.112Z,13.33
2023-01-13T17:33:42.179Z,19.63
2023-01-13T17:36:10.586Z,19.77
2023-01-13T17:38:40.344Z,15.03
2023-01-13T17:41:08.438Z,18.50
2023-01-13T17:43:36.780Z,18.17
2023-01-13T17:46:09.359Z,13.50
2023-01-13T17:48:40.950Z,14.20
2023-01-13T17:51:13.348Z,15.80
2023-01-13T17:53:43.292Z,16.77
2023-01-13T17:56:14.861Z,18.73
2023-01-13T17:58:47.940Z,9.77
2023-01-13T18:01:19.406Z,16.63
2023-01-13T18:03:49.923Z,15.37
2023-01-13T18:06:21.217Z,16.87
2023-01-13T18:08:50.104Z,18.60
2023-01-13T18:14:57.518Z,13.70
2023-01-13T18:17:25.591Z,16.30
2023-01-13T18:20:15.594Z,15.60
2023-01-13T18:23:03.513Z,19.63
2023-01-13T18:25:50.325Z,13.90
2023-01-13T18:28:18.858Z,17.73
2023-01-13T18:30:51.082Z,18.00
2023-01-13T18:33:20.224Z,13.57
2023-01-13T18:35:49.832Z,14.90
2023-01-13T18:38:23.311Z,16.97
2023-01-13T18:40:51.675Z,13.47
2023-01-13T18:43:21.003Z,13.73
2023-01-13T18:45:51.308Z,11.47
2023-01-13T18:48:19.435Z,7.93
2023-01-13T18:50:49.207Z,14.30
2023-01-13T18:53:17.318Z,11.17
2023-01-13T18:55:45.293Z,12.40
2023-01-13T18:58:13.736Z,11.63
2023-01-13T19:00:42.562Z,11.87
2023-01-13T19:03:11.825Z,8.83
2023-01-13T19:05:39.857Z,9.83
2023-01-13T19:08:14.323Z,11.77
2023-01-13T19:10:48.781Z,11.10
2023-01-13T19:13:22.799Z,9.90
2023-01-13T19:15:56.504Z,10.85
2023-01-13T19:18:27.174Z,8.80
2023-01-13T19:20:55.993Z,14.70
2023-01-13T19:23:27.936Z,14.23
2023-01-13T19:26:06.518Z,9.27
2023-01-13T19:56:49.705Z,2.83
2023-01-13T19:59:29.137Z,3.50
2023-01-13T20:01:57.706Z,2.80
2023-01-13T20:04:40.506Z,5.80
2023-01-13T20:07:09.287Z,5.07
2023-01-13T20:09:37.930Z,3.50
2023-01-13T20:12:15.386Z,5.67
2023-01-13T20:24:00.642Z,7.13
2023-01-13T20:26:35.367Z,5.20
2023-01-13T20:29:46.981Z,6.78
2023-01-13T20:33:00.123Z,5.87
2023-01-13T20:36:01.121Z,7.13
2023-01-13T20:39:08.777Z,8.27
2023-01-13T20:41:58.786Z,5.90
2023-01-13T20:44:34.617Z,5.27
2023-01-13T20:47:05.090Z,8.00
2023-01-13T20:49:36.909Z,7.20
2023-01-13T20:52:09.622Z,8.67
2023-01-13T20:54:41.950Z,8.27
2023-01-13T20:57:12.264Z,6.53
2023-01-13T20:59:40.563Z,7.07
2023-01-13T21:02:14.020Z,6.73
2023-01-13T21:04:44.853Z,8.97
2023-01-13T21:07:13.173Z,6.53
2023-01-13T21:09:46.543Z,2.43
2023-01-13T21:12:35.642Z,6.20
2023-01-13T21:15:17.194Z,3.27
2023-01-13T21:18:06.345Z,4.17
2023-01-13T21:20:36.907Z,3.07
2023-01-13T21:23:06.527Z,4.73
2023-01-13T21:25:43.529Z,5.77
2023-01-13T21:28:13.573Z,4.60
2023-01-13T21:30:43.809Z,3.80
2023-01-13T21:33:14.487Z,6.40
2023-01-13T21:35:42.738Z,6.67
2023-01-13T21:38:12.120Z,6.10
2023-01-13T21:40:42.467Z,4.13
2023-01-13T21:43:31.970Z,5.17
2023-01-13T21:46:18.728Z,5.07
2023-01-13T21:48:50.099Z,4.03
2023-01-13T21:51:18.229Z,5.20
2023-01-13T21:53:46.226Z,6.50
2023-01-13T21:56:24.272Z,9.00
2023-01-13T21:58:52.484Z,5.93
2023-01-13T22:01:20.577Z,6.33
2023-01-13T22:04:07.292Z,11.67
2023-01-13T22:06:39.589Z,5.47
2023-01-13T22:09:07.746Z,8.77
2023-01-13T22:11:37.127Z,6.93
2023-01-13T22:14:13.421Z,7.90
2023-01-13T22:16:49.029Z,7.83
2023-01-13T22:21:46.261Z,8.87
2023-01-13T22:24:14.594Z,12.80
2023-01-13T22:26:44.962Z,8.60
2023-01-13T22:29:13.029Z,9.63
2023-01-13T22:31:41.463Z,9.63
2023-01-13T22:34:15.195Z,11.53
2023-01-13T22:36:43.256Z,10.37
2023-01-13T22:39:12.265Z,6.07
2023-01-13T22:41:40.271Z,9.40
2023-01-13T22:44:09.823Z,7.17
2023-01-13T22:46:39.841Z,9.63
2023-01-13T22:49:08.483Z,10.43
2023-01-13T22:51:36.612Z,7.70
2023-01-13T22:54:05.427Z,6.07
2023-01-13T22:56:33.847Z,9.73
2023-01-13T22:59:04.568Z,6.77
2023-01-13T23:01:35.363Z,7.73
2023-01-13T23:04:05.107Z,9.63
2023-01-13T23:06:40.095Z,5.20
2023-01-13T23:09:10.100Z,5.75
2023-01-13T23:11:39.609Z,7.37
2023-01-13T23:14:11.875Z,6.47
2023-01-13T23:16:42.149Z,6.50
2023-01-13T23:19:11.016Z,7.33
2023-01-13T23:21:39.050Z,6.27
2023-01-13T23:24:08.417Z,5.50
2023-01-13T23:26:40.987Z,6.63
2023-01-13T23:29:13.209Z,5.20
2023-01-13T23:31:43.531Z,5.33
2023-01-13T23:34:12.475Z,6.07
2023-01-13T23:36:42.487Z,6.27
2023-01-13T23:39:10.909Z,5.87
2023-01-13T23:41:39.542Z,7.33
2023-01-13T23:44:07.990Z,7.60
2023-01-13T23:46:36.637Z,8.23
2023-01-13T23:49:07.165Z,6.77
2023-01-13T23:51:35.369Z,7.07
2023-01-13T23:54:03.526Z,9.10
2023-01-13T23:56:33.229Z,5.47
2023-01-13T23:59:01.206Z,8.10
